sensor_id;sensor_type;location;lat;lon;timestamp;temperature;humidity
29575;DHT22;16507;51.046;6.406;2023-04-29T00:00:06;11.50;99.90
29575;DHT22;16507;51.046;6.406;2023-04-29T00:02:33;11.50;99.90
29575;DHT22;16507;51.046;6.406;2023-04-29T00:04:59;11.40;99.90
29575;DHT22;16507;51.046;6.406;2023-04-29T00:07:24;11.30;99.90
29575;DHT22;16507;51.046;6.406;2023-04-29T00:09:50;11.30;99.90
29575;DHT22;16507;51.046;6.406;2023-04-29T00:12:16;11.30;99.90
29575;DHT22;16507;51.046;6.406;2023-04-29T00:14:42;11.30;99.90
29575;DHT22;16507;51.046;6.406;2023-04-29T00:17:08;11.20;99.90
29575;DHT22;16507;51.046;6.406;2023-04-29T00:19:34;11.20;99.90
29575;DHT22;16507;51.046;6.406;2023-04-29T00:22:00;11.20;99.90
29575;DHT22;16507;51.046;6.406;2023-04-29T00:24:26;11.10;99.90
29575;DHT22;16507;51.046;6.406;2023-04-29T00:26:52;11.10;99.90
29575;DHT22;16507;51.046;6.406;2023-04-29T00:29:17;11.10;99.90
29575;DHT22;16507;51.046;6.406;2023-04-29T00:31:43;11.10;99.90
29575;DHT22;16507;51.046;6.406;2023-04-29T00:34:09;11.10;99.90
29575;DHT22;16507;51.046;6.406;2023-04-29T00:36:35;11.00;99.90
29575;DHT22;16507;51.046;6.406;2023-04-29T00:39:01;11.10;99.90
29575;DHT22;16507;51.046;6.406;2023-04-29T00:41:28;11.00;99.90
29575;DHT22;16507;51.046;6.406;2023-04-29T00:43:55;11.00;99.90
29575;DHT22;16507;51.046;6.406;2023-04-29T00:46:20;11.00;99.90
29575;DHT22;16507;51.046;6.406;2023-04-29T00:48:46;10.90;99.90
29575;DHT22;16507;51.046;6.406;2023-04-29T00:51:12;10.90;99.90
29575;DHT22;16507;51.046;6.406;2023-04-29T00:53:38;10.90;99.90
29575;DHT22;16507;51.046;6.406;2023-04-29T00:56:04;10.90;99.90
29575;DHT22;16507;51.046;6.406;2023-04-29T00:58:32;10.80;99.90
29575;DHT22;16507;51.046;6.406;2023-04-29T01:01:00;10.80;99.90
29575;DHT22;16507;51.046;6.406;2023-04-29T01:03:31;10.70;99.90
29575;DHT22;16507;51.046;6.406;2023-04-29T01:12:07;10.70;99.90
29575;DHT22;16507;51.046;6.406;2023-04-29T01:14:37;10.60;99.90
29575;DHT22;16507;51.046;6.406;2023-04-29T01:17:17;10.60;99.90
29575;DHT22;16507;51.046;6.406;2023-04-29T01:19:47;10.60;99.90
29575;DHT22;16507;51.046;6.406;2023-04-29T01:22:14;10.60;99.90
29575;DHT22;16507;51.046;6.406;2023-04-29T01:24:42;10.60;99.90
29575;DHT22;16507;51.046;6.406;2023-04-29T01:27:33;10.60;99.90
29575;DHT22;16507;51.046;6.406;2023-04-29T01:33:22;10.50;99.90
29575;DHT22;16507;51.046;6.406;2023-04-29T01:41:50;10.50;99.90
29575;DHT22;16507;51.046;6.406;2023-04-29T01:44:22;10.50;99.90
29575;DHT22;16507;51.046;6.406;2023-04-29T01:46:51;10.50;99.90
29575;DHT22;16507;51.046;6.406;2023-04-29T01:49:23;10.50;99.90
29575;DHT22;16507;51.046;6.406;2023-04-29T01:51:49;10.50;99.90
29575;DHT22;16507;51.046;6.406;2023-04-29T01:54:15;10.50;99.90
29575;DHT22;16507;51.046;6.406;2023-04-29T01:56:41;10.40;99.90
29575;DHT22;16507;51.046;6.406;2023-04-29T01:59:06;10.40;99.90
29575;DHT22;16507;51.046;6.406;2023-04-29T02:01:32;10.30;99.90
29575;DHT22;16507;51.046;6.406;2023-04-29T02:03:58;10.30;99.90
29575;DHT22;16507;51.046;6.406;2023-04-29T02:06:24;10.20;99.90
29575;DHT22;16507;51.046;6.406;2023-04-29T02:08:51;10.20;99.90
29575;DHT22;16507;51.046;6.406;2023-04-29T02:11:16;10.20;99.90
29575;DHT22;16507;51.046;6.406;2023-04-29T02:13:42;10.20;99.90
29575;DHT22;16507;51.046;6.406;2023-04-29T02:16:12;10.20;99.90
29575;DHT22;16507;51.046;6.406;2023-04-29T02:18:38;10.20;99.90
29575;DHT22;16507;51.046;6.406;2023-04-29T02:21:05;10.20;99.90
29575;DHT22;16507;51.046;6.406;2023-04-29T02:23:31;10.10;99.90
29575;DHT22;16507;51.046;6.406;2023-04-29T02:25:56;10.10;99.90
29575;DHT22;16507;51.046;6.406;2023-04-29T02:28:22;10.10;99.90
29575;DHT22;16507;51.046;6.406;2023-04-29T02:30:48;10.10;99.90
29575;DHT22;16507;51.046;6.406;2023-04-29T02:33:14;10.10;99.90
29575;DHT22;16507;51.046;6.406;2023-04-29T02:35:40;10.10;99.90
29575;DHT22;16507;51.046;6.406;2023-04-29T02:38:06;10.10;99.90
29575;DHT22;16507;51.046;6.406;2023-04-29T02:40:32;10.00;99.90
29575;DHT22;16507;51.046;6.406;2023-04-29T02:42:58;10.00;99.90
29575;DHT22;16507;51.046;6.406;2023-04-29T02:45:24;10.00;99.90
29575;DHT22;16507;51.046;6.406;2023-04-29T02:47:49;10.00;99.90
29575;DHT22;16507;51.046;6.406;2023-04-29T02:50:15;10.00;99.90
29575;DHT22;16507;51.046;6.406;2023-04-29T02:52:40;10.00;99.90
29575;DHT22;16507;51.046;6.406;2023-04-29T02:55:06;10.00;99.90
29575;DHT22;16507;51.046;6.406;2023-04-29T02:57:32;10.00;99.90
29575;DHT22;16507;51.046;6.406;2023-04-29T02:59:58;9.90;99.90
29575;DHT22;16507;51.046;6.406;2023-04-29T03:02:24;9.90;99.90
29575;DHT22;16507;51.046;6.406;2023-04-29T03:04:50;9.80;99.90
29575;DHT22;16507;51.046;6.406;2023-04-29T03:07:16;9.80;99.90
29575;DHT22;16507;51.046;6.406;2023-04-29T03:09:42;9.70;99.90
29575;DHT22;16507;51.046;6.406;2023-04-29T03:12:08;9.60;99.90
29575;DHT22;16507;51.046;6.406;2023-04-29T03:14:33;9.50;99.90
29575;DHT22;16507;51.046;6.406;2023-04-29T03:17:00;9.50;99.90
29575;DHT22;16507;51.046;6.406;2023-04-29T03:19:26;9.40;99.90
29575;DHT22;16507;51.046;6.406;2023-04-29T03:21:51;9.30;99.90
29575;DHT22;16507;51.046;6.406;2023-04-29T03:24:17;9.30;99.90
29575;DHT22;16507;51.046;6.406;2023-04-29T03:26:43;9.20;99.90
29575;DHT22;16507;51.046;6.406;2023-04-29T03:29:08;9.10;99.90
29575;DHT22;16507;51.046;6.406;2023-04-29T03:31:34;9.00;99.90
29575;DHT22;16507;51.046;6.406;2023-04-29T03:34:00;9.10;99.90
29575;DHT22;16507;51.046;6.406;2023-04-29T03:36:25;9.00;99.90
29575;DHT22;16507;51.046;6.406;2023-04-29T03:38:51;9.00;99.90
29575;DHT22;16507;51.046;6.406;2023-04-29T03:41:17;9.00;99.90
29575;DHT22;16507;51.046;6.406;2023-04-29T03:43:42;9.10;99.90
29575;DHT22;16507;51.046;6.406;2023-04-29T03:46:10;9.10;99.90
29575;DHT22;16507;51.046;6.406;2023-04-29T03:48:36;9.10;99.90
29575;DHT22;16507;51.046;6.406;2023-04-29T03:51:02;9.10;99.90
29575;DHT22;16507;51.046;6.406;2023-04-29T03:53:28;9.10;99.90
29575;DHT22;16507;51.046;6.406;2023-04-29T03:55:54;9.10;99.90
29575;DHT22;16507;51.046;6.406;2023-04-29T03:58:20;9.10;99.90
29575;DHT22;16507;51.046;6.406;2023-04-29T04:00:47;9.10;99.90
29575;DHT22;16507;51.046;6.406;2023-04-29T04:03:13;9.10;99.90
29575;DHT22;16507;51.046;6.406;2023-04-29T04:05:39;9.10;99.90
29575;DHT22;16507;51.046;6.406;2023-04-29T04:08:04;9.20;99.90
29575;DHT22;16507;51.046;6.406;2023-04-29T04:10:30;9.10;99.90
29575;DHT22;16507;51.046;6.406;2023-04-29T04:12:56;9.10;99.90
29575;DHT22;16507;51.046;6.406;2023-04-29T04:15:21;9.10;99.90
29575;DHT22;16507;51.046;6.406;2023-04-29T04:17:47;9.10;99.90
29575;DHT22;16507;51.046;6.406;2023-04-29T04:20:13;9.10;99.90
29575;DHT22;16507;51.046;6.406;2023-04-29T04:22:38;9.00;99.90
29575;DHT22;16507;51.046;6.406;2023-04-29T04:25:04;9.00;99.90
29575;DHT22;16507;51.046;6.406;2023-04-29T04:27:30;9.00;99.90
29575;DHT22;16507;51.046;6.406;2023-04-29T04:29:56;8.90;99.90
29575;DHT22;16507;51.046;6.406;2023-04-29T04:32:22;8.90;99.90
29575;DHT22;16507;51.046;6.406;2023-04-29T04:34:48;8.80;99.90
29575;DHT22;16507;51.046;6.406;2023-04-29T04:37:14;8.80;99.90
29575;DHT22;16507;51.046;6.406;2023-04-29T04:39:39;8.80;99.90
29575;DHT22;16507;51.046;6.406;2023-04-29T04:42:05;8.80;99.90
29575;DHT22;16507;51.046;6.406;2023-04-29T04:44:31;8.80;99.90
29575;DHT22;16507;51.046;6.406;2023-04-29T04:46:57;8.80;99.90
29575;DHT22;16507;51.046;6.406;2023-04-29T04:49:25;8.80;99.90
29575;DHT22;16507;51.046;6.406;2023-04-29T04:51:52;8.80;99.90
29575;DHT22;16507;51.046;6.406;2023-04-29T04:54:17;8.80;99.90
29575;DHT22;16507;51.046;6.406;2023-04-29T04:56:43;8.90;99.90
29575;DHT22;16507;51.046;6.406;2023-04-29T04:59:08;8.90;99.90
29575;DHT22;16507;51.046;6.406;2023-04-29T05:01:34;8.90;99.90
29575;DHT22;16507;51.046;6.406;2023-04-29T05:04:00;8.90;99.90
29575;DHT22;16507;51.046;6.406;2023-04-29T05:06:27;8.90;99.90
29575;DHT22;16507;51.046;6.406;2023-04-29T05:08:53;8.90;99.90
29575;DHT22;16507;51.046;6.406;2023-04-29T05:11:19;8.90;99.90
29575;DHT22;16507;51.046;6.406;2023-04-29T05:13:45;8.90;99.90
29575;DHT22;16507;51.046;6.406;2023-04-29T05:16:11;9.00;99.90
29575;DHT22;16507;51.046;6.406;2023-04-29T05:18:37;9.00;99.90
29575;DHT22;16507;51.046;6.406;2023-04-29T05:21:03;9.00;99.90
29575;DHT22;16507;51.046;6.406;2023-04-29T05:23:28;9.00;99.90
29575;DHT22;16507;51.046;6.406;2023-04-29T05:25:54;8.90;99.90
29575;DHT22;16507;51.046;6.406;2023-04-29T05:28:20;8.90;99.90
29575;DHT22;16507;51.046;6.406;2023-04-29T05:30:46;9.00;99.90
29575;DHT22;16507;51.046;6.406;2023-04-29T05:33:14;9.00;99.90
29575;DHT22;16507;51.046;6.406;2023-04-29T05:35:40;9.00;99.90
29575;DHT22;16507;51.046;6.406;2023-04-29T05:38:06;9.00;99.90
29575;DHT22;16507;51.046;6.406;2023-04-29T05:40:31;9.00;99.90
29575;DHT22;16507;51.046;6.406;2023-04-29T05:42:58;9.00;99.90
29575;DHT22;16507;51.046;6.406;2023-04-29T05:45:24;9.10;99.90
29575;DHT22;16507;51.046;6.406;2023-04-29T05:47:49;9.10;99.90
29575;DHT22;16507;51.046;6.406;2023-04-29T05:50:15;9.00;99.90
29575;DHT22;16507;51.046;6.406;2023-04-29T05:52:41;9.10;99.90
29575;DHT22;16507;51.046;6.406;2023-04-29T05:55:07;9.10;99.90
29575;DHT22;16507;51.046;6.406;2023-04-29T05:57:32;9.10;99.90
29575;DHT22;16507;51.046;6.406;2023-04-29T05:59:58;9.10;99.90
29575;DHT22;16507;51.046;6.406;2023-04-29T06:02:25;9.10;99.90
29575;DHT22;16507;51.046;6.406;2023-04-29T06:04:51;9.20;99.90
29575;DHT22;16507;51.046;6.406;2023-04-29T06:07:17;9.20;99.90
29575;DHT22;16507;51.046;6.406;2023-04-29T06:09:43;9.10;99.90
29575;DHT22;16507;51.046;6.406;2023-04-29T06:12:09;9.20;99.90
29575;DHT22;16507;51.046;6.406;2023-04-29T06:14:35;9.30;99.90
29575;DHT22;16507;51.046;6.406;2023-04-29T06:17:01;9.30;99.90
29575;DHT22;16507;51.046;6.406;2023-04-29T06:19:26;9.30;99.90
29575;DHT22;16507;51.046;6.406;2023-04-29T06:21:52;9.30;99.90
29575;DHT22;16507;51.046;6.406;2023-04-29T06:24:18;9.40;99.90
29575;DHT22;16507;51.046;6.406;2023-04-29T06:26:43;9.40;99.90
29575;DHT22;16507;51.046;6.406;2023-04-29T06:29:09;9.60;99.90
29575;DHT22;16507;51.046;6.406;2023-04-29T06:31:35;9.50;99.90
29575;DHT22;16507;51.046;6.406;2023-04-29T06:34:00;9.50;99.90
29575;DHT22;16507;51.046;6.406;2023-04-29T06:36:26;9.60;99.90
29575;DHT22;16507;51.046;6.406;2023-04-29T06:38:52;9.50;99.90
29575;DHT22;16507;51.046;6.406;2023-04-29T06:41:18;9.60;99.90
29575;DHT22;16507;51.046;6.406;2023-04-29T06:43:43;9.70;99.90
29575;DHT22;16507;51.046;6.406;2023-04-29T06:46:09;9.70;99.90
29575;DHT22;16507;51.046;6.406;2023-04-29T06:48:36;9.70;99.90
29575;DHT22;16507;51.046;6.406;2023-04-29T06:51:01;9.70;99.90
29575;DHT22;16507;51.046;6.406;2023-04-29T06:53:27;9.70;99.90
29575;DHT22;16507;51.046;6.406;2023-04-29T06:55:53;9.70;99.90
29575;DHT22;16507;51.046;6.406;2023-04-29T06:58:19;9.70;99.90
29575;DHT22;16507;51.046;6.406;2023-04-29T07:00:48;9.70;99.90
29575;DHT22;16507;51.046;6.406;2023-04-29T07:03:15;9.70;99.90
29575;DHT22;16507;51.046;6.406;2023-04-29T07:05:42;9.70;99.90
29575;DHT22;16507;51.046;6.406;2023-04-29T07:08:10;9.80;99.90
29575;DHT22;16507;51.046;6.406;2023-04-29T07:10:37;9.80;99.90
29575;DHT22;16507;51.046;6.406;2023-04-29T07:13:03;9.90;99.90
29575;DHT22;16507;51.046;6.406;2023-04-29T07:15:32;9.80;99.90
29575;DHT22;16507;51.046;6.406;2023-04-29T07:17:58;9.90;99.90
29575;DHT22;16507;51.046;6.406;2023-04-29T07:20:25;9.80;99.90
29575;DHT22;16507;51.046;6.406;2023-04-29T07:22:51;9.80;99.90
29575;DHT22;16507;51.046;6.406;2023-04-29T07:25:17;9.80;99.90
29575;DHT22;16507;51.046;6.406;2023-04-29T07:27:43;9.90;99.90
29575;DHT22;16507;51.046;6.406;2023-04-29T07:30:08;9.90;99.90
29575;DHT22;16507;51.046;6.406;2023-04-29T07:32:34;9.90;99.90
29575;DHT22;16507;51.046;6.406;2023-04-29T07:35:00;10.00;99.90
29575;DHT22;16507;51.046;6.406;2023-04-29T07:37:25;10.00;99.90
29575;DHT22;16507;51.046;6.406;2023-04-29T07:39:51;9.90;99.90
29575;DHT22;16507;51.046;6.406;2023-04-29T07:42:17;10.10;99.90
29575;DHT22;16507;51.046;6.406;2023-04-29T07:44:43;10.00;99.90
29575;DHT22;16507;51.046;6.406;2023-04-29T07:47:10;10.00;99.90
29575;DHT22;16507;51.046;6.406;2023-04-29T07:49:36;10.00;99.90
29575;DHT22;16507;51.046;6.406;2023-04-29T07:52:04;10.00;99.90
29575;DHT22;16507;51.046;6.406;2023-04-29T07:54:30;10.00;99.90
29575;DHT22;16507;51.046;6.406;2023-04-29T07:56:59;9.90;99.90
29575;DHT22;16507;51.046;6.406;2023-04-29T07:59:25;9.90;99.90
29575;DHT22;16507;51.046;6.406;2023-04-29T08:01:51;10.00;99.90
29575;DHT22;16507;51.046;6.406;2023-04-29T08:04:18;10.00;99.90
29575;DHT22;16507;51.046;6.406;2023-04-29T08:06:43;9.90;99.90
29575;DHT22;16507;51.046;6.406;2023-04-29T08:09:09;10.00;99.90
29575;DHT22;16507;51.046;6.406;2023-04-29T08:11:35;10.00;99.90
29575;DHT22;16507;51.046;6.406;2023-04-29T08:14:01;9.90;99.90
29575;DHT22;16507;51.046;6.406;2023-04-29T08:16:27;9.90;99.90
29575;DHT22;16507;51.046;6.406;2023-04-29T08:18:53;9.90;99.90
29575;DHT22;16507;51.046;6.406;2023-04-29T08:21:19;9.90;99.90
29575;DHT22;16507;51.046;6.406;2023-04-29T08:23:44;9.80;99.90
29575;DHT22;16507;51.046;6.406;2023-04-29T08:26:10;9.80;99.90
29575;DHT22;16507;51.046;6.406;2023-04-29T08:28:39;9.90;99.90
29575;DHT22;16507;51.046;6.406;2023-04-29T08:31:05;9.90;99.90
29575;DHT22;16507;51.046;6.406;2023-04-29T08:33:37;10.00;99.90
29575;DHT22;16507;51.046;6.406;2023-04-29T08:36:03;10.00;99.90
29575;DHT22;16507;51.046;6.406;2023-04-29T08:38:29;9.90;99.90
29575;DHT22;16507;51.046;6.406;2023-04-29T08:40:55;9.80;99.90
29575;DHT22;16507;51.046;6.406;2023-04-29T08:43:21;9.90;99.90
29575;DHT22;16507;51.046;6.406;2023-04-29T08:45:48;10.00;99.90
29575;DHT22;16507;51.046;6.406;2023-04-29T08:48:15;10.10;99.90
29575;DHT22;16507;51.046;6.406;2023-04-29T08:50:42;10.30;99.90
29575;DHT22;16507;51.046;6.406;2023-04-29T08:53:10;10.60;99.90
29575;DHT22;16507;51.046;6.406;2023-04-29T08:55:45;10.70;99.90
29575;DHT22;16507;51.046;6.406;2023-04-29T08:58:13;11.00;99.90
29575;DHT22;16507;51.046;6.406;2023-04-29T09:00:40;11.10;99.90
29575;DHT22;16507;51.046;6.406;2023-04-29T09:03:30;11.20;99.90
29575;DHT22;16507;51.046;6.406;2023-04-29T09:05:59;11.30;99.90
29575;DHT22;16507;51.046;6.406;2023-04-29T09:08:29;11.50;99.90
29575;DHT22;16507;51.046;6.406;2023-04-29T09:10:55;11.60;99.90
29575;DHT22;16507;51.046;6.406;2023-04-29T09:15:48;11.90;99.90
29575;DHT22;16507;51.046;6.406;2023-04-29T09:18:40;12.10;99.90
29575;DHT22;16507;51.046;6.406;2023-04-29T09:21:32;12.10;99.90
29575;DHT22;16507;51.046;6.406;2023-04-29T09:24:02;12.20;99.90
29575;DHT22;16507;51.046;6.406;2023-04-29T09:26:40;12.30;99.90
29575;DHT22;16507;51.046;6.406;2023-04-29T09:29:06;12.30;99.90
29575;DHT22;16507;51.046;6.406;2023-04-29T09:31:40;12.00;99.90
29575;DHT22;16507;51.046;6.406;2023-04-29T09:34:07;11.80;99.90
29575;DHT22;16507;51.046;6.406;2023-04-29T09:36:37;11.60;99.90
29575;DHT22;16507;51.046;6.406;2023-04-29T09:39:05;11.50;99.90
29575;DHT22;16507;51.046;6.406;2023-04-29T09:41:35;11.40;99.90
29575;DHT22;16507;51.046;6.406;2023-04-29T09:44:02;11.40;99.90
29575;DHT22;16507;51.046;6.406;2023-04-29T09:46:31;11.30;99.90
29575;DHT22;16507;51.046;6.406;2023-04-29T09:48:56;11.30;99.90
29575;DHT22;16507;51.046;6.406;2023-04-29T09:51:23;11.30;99.90
29575;DHT22;16507;51.046;6.406;2023-04-29T09:53:49;11.40;99.90
29575;DHT22;16507;51.046;6.406;2023-04-29T09:56:16;11.30;99.90
29575;DHT22;16507;51.046;6.406;2023-04-29T09:58:42;11.30;99.90
29575;DHT22;16507;51.046;6.406;2023-04-29T10:01:08;11.30;99.90
29575;DHT22;16507;51.046;6.406;2023-04-29T10:03:38;11.30;99.90
29575;DHT22;16507;51.046;6.406;2023-04-29T10:06:07;11.30;99.90
29575;DHT22;16507;51.046;6.406;2023-04-29T10:08:33;11.20;99.90
29575;DHT22;16507;51.046;6.406;2023-04-29T10:11:02;11.20;99.90
29575;DHT22;16507;51.046;6.406;2023-04-29T10:13:29;11.20;99.90
29575;DHT22;16507;51.046;6.406;2023-04-29T10:18:36;11.10;99.90
29575;DHT22;16507;51.046;6.406;2023-04-29T10:21:07;11.10;99.90
29575;DHT22;16507;51.046;6.406;2023-04-29T10:23:34;11.10;99.90
29575;DHT22;16507;51.046;6.406;2023-04-29T10:26:01;11.20;99.90
29575;DHT22;16507;51.046;6.406;2023-04-29T10:28:31;11.10;99.90
29575;DHT22;16507;51.046;6.406;2023-04-29T10:30:59;11.10;99.90
29575;DHT22;16507;51.046;6.406;2023-04-29T10:33:26;11.10;99.90
29575;DHT22;16507;51.046;6.406;2023-04-29T10:35:54;11.10;99.90
29575;DHT22;16507;51.046;6.406;2023-04-29T10:38:27;11.10;99.90
29575;DHT22;16507;51.046;6.406;2023-04-29T10:40:55;11.10;99.90
29575;DHT22;16507;51.046;6.406;2023-04-29T10:43:25;11.10;99.90
29575;DHT22;16507;51.046;6.406;2023-04-29T10:48:42;11.10;99.90
29575;DHT22;16507;51.046;6.406;2023-04-29T10:51:08;11.30;99.90
29575;DHT22;16507;51.046;6.406;2023-04-29T10:53:33;11.30;99.90
29575;DHT22;16507;51.046;6.406;2023-04-29T10:56:09;11.30;99.90
29575;DHT22;16507;51.046;6.406;2023-04-29T10:58:44;11.30;99.90
29575;DHT22;16507;51.046;6.406;2023-04-29T11:01:12;11.40;99.90
29575;DHT22;16507;51.046;6.406;2023-04-29T11:06:11;11.40;99.90
29575;DHT22;16507;51.046;6.406;2023-04-29T11:08:37;11.40;99.90
29575;DHT22;16507;51.046;6.406;2023-04-29T11:11:04;11.50;99.90
29575;DHT22;16507;51.046;6.406;2023-04-29T11:13:31;11.50;99.90
29575;DHT22;16507;51.046;6.406;2023-04-29T11:16:06;11.50;99.90
29575;DHT22;16507;51.046;6.406;2023-04-29T11:18:32;11.50;99.90
29575;DHT22;16507;51.046;6.406;2023-04-29T11:23:33;11.30;99.90
29575;DHT22;16507;51.046;6.406;2023-04-29T11:26:02;11.40;99.90
29575;DHT22;16507;51.046;6.406;2023-04-29T11:28:29;11.50;99.90
29575;DHT22;16507;51.046;6.406;2023-04-29T11:30:59;11.50;99.90
29575;DHT22;16507;51.046;6.406;2023-04-29T11:33:26;11.50;99.90
29575;DHT22;16507;51.046;6.406;2023-04-29T11:35:52;11.40;99.90
29575;DHT22;16507;51.046;6.406;2023-04-29T11:38:24;11.50;99.90
29575;DHT22;16507;51.046;6.406;2023-04-29T11:40:56;11.50;99.90
29575;DHT22;16507;51.046;6.406;2023-04-29T11:43:23;11.50;99.90
29575;DHT22;16507;51.046;6.406;2023-04-29T11:45:51;11.50;99.90
29575;DHT22;16507;51.046;6.406;2023-04-29T11:48:24;11.50;99.90
29575;DHT22;16507;51.046;6.406;2023-04-29T11:50:58;11.50;99.90
29575;DHT22;16507;51.046;6.406;2023-04-29T11:53:25;11.50;99.90
29575;DHT22;16507;51.046;6.406;2023-04-29T11:55:52;11.50;99.90
29575;DHT22;16507;51.046;6.406;2023-04-29T11:58:22;11.40;99.90
29575;DHT22;16507;51.046;6.406;2023-04-29T12:00:48;11.50;99.90
29575;DHT22;16507;51.046;6.406;2023-04-29T12:03:15;11.70;99.90
29575;DHT22;16507;51.046;6.406;2023-04-29T12:05:49;11.80;99.90
29575;DHT22;16507;51.046;6.406;2023-04-29T12:08:22;12.00;99.90
29575;DHT22;16507;51.046;6.406;2023-04-29T12:10:48;12.00;99.90
29575;DHT22;16507;51.046;6.406;2023-04-29T12:13:18;12.00;99.90
29575;DHT22;16507;51.046;6.406;2023-04-29T12:15:48;12.30;99.90
29575;DHT22;16507;51.046;6.406;2023-04-29T12:18:16;12.20;99.90
29575;DHT22;16507;51.046;6.406;2023-04-29T12:20:42;12.30;99.90
29575;DHT22;16507;51.046;6.406;2023-04-29T12:23:15;12.40;99.90
29575;DHT22;16507;51.046;6.406;2023-04-29T12:25:54;12.50;99.90
29575;DHT22;16507;51.046;6.406;2023-04-29T12:28:20;12.50;99.90
29575;DHT22;16507;51.046;6.406;2023-04-29T12:30:47;12.50;99.90
29575;DHT22;16507;51.046;6.406;2023-04-29T12:33:27;12.40;99.90
29575;DHT22;16507;51.046;6.406;2023-04-29T12:35:54;12.70;99.90
29575;DHT22;16507;51.046;6.406;2023-04-29T12:38:31;12.80;99.90
29575;DHT22;16507;51.046;6.406;2023-04-29T12:41:00;12.90;99.90
29575;DHT22;16507;51.046;6.406;2023-04-29T12:43:33;13.20;99.90
29575;DHT22;16507;51.046;6.406;2023-04-29T12:46:16;13.40;99.90
29575;DHT22;16507;51.046;6.406;2023-04-29T12:48:46;13.40;99.90
29575;DHT22;16507;51.046;6.406;2023-04-29T12:51:11;13.40;99.90
29575;DHT22;16507;51.046;6.406;2023-04-29T12:53:38;13.60;99.90
29575;DHT22;16507;51.046;6.406;2023-04-29T12:56:07;13.50;99.90
29575;DHT22;16507;51.046;6.406;2023-04-29T12:58:32;13.70;99.90
29575;DHT22;16507;51.046;6.406;2023-04-29T13:00:59;13.80;99.90
29575;DHT22;16507;51.046;6.406;2023-04-29T13:03:25;14.10;99.90
29575;DHT22;16507;51.046;6.406;2023-04-29T13:05:50;14.10;99.90
29575;DHT22;16507;51.046;6.406;2023-04-29T13:08:18;14.10;99.90
29575;DHT22;16507;51.046;6.406;2023-04-29T13:10:43;14.00;99.90
29575;DHT22;16507;51.046;6.406;2023-04-29T13:13:09;13.90;99.90
29575;DHT22;16507;51.046;6.406;2023-04-29T13:15:35;14.10;99.90
29575;DHT22;16507;51.046;6.406;2023-04-29T13:18:04;14.50;99.90
29575;DHT22;16507;51.046;6.406;2023-04-29T13:20:30;14.60;99.90
29575;DHT22;16507;51.046;6.406;2023-04-29T13:22:57;14.40;99.90
29575;DHT22;16507;51.046;6.406;2023-04-29T13:25:23;14.60;99.90
29575;DHT22;16507;51.046;6.406;2023-04-29T13:27:48;14.80;99.90
29575;DHT22;16507;51.046;6.406;2023-04-29T13:30:14;15.00;99.90
29575;DHT22;16507;51.046;6.406;2023-04-29T13:32:40;14.80;99.90
29575;DHT22;16507;51.046;6.406;2023-04-29T13:35:07;14.70;99.90
29575;DHT22;16507;51.046;6.406;2023-04-29T13:37:33;14.50;99.90
29575;DHT22;16507;51.046;6.406;2023-04-29T13:39:58;14.60;99.90
29575;DHT22;16507;51.046;6.406;2023-04-29T13:42:24;14.60;99.90
29575;DHT22;16507;51.046;6.406;2023-04-29T13:44:50;14.90;99.90
29575;DHT22;16507;51.046;6.406;2023-04-29T13:47:16;15.50;99.90
29575;DHT22;16507;51.046;6.406;2023-04-29T13:49:42;15.10;99.90
29575;DHT22;16507;51.046;6.406;2023-04-29T13:52:11;15.20;99.90
29575;DHT22;16507;51.046;6.406;2023-04-29T13:54:37;15.40;99.90
29575;DHT22;16507;51.046;6.406;2023-04-29T13:57:04;15.40;99.90
29575;DHT22;16507;51.046;6.406;2023-04-29T13:59:33;15.60;99.90
29575;DHT22;16507;51.046;6.406;2023-04-29T14:01:59;15.60;99.90
29575;DHT22;16507;51.046;6.406;2023-04-29T14:04:26;15.20;99.90
29575;DHT22;16507;51.046;6.406;2023-04-29T14:06:52;14.30;99.90
29575;DHT22;16507;51.046;6.406;2023-04-29T14:09:19;14.30;99.90
29575;DHT22;16507;51.046;6.406;2023-04-29T14:11:48;14.20;99.90
29575;DHT22;16507;51.046;6.406;2023-04-29T14:14:14;14.20;99.90
29575;DHT22;16507;51.046;6.406;2023-04-29T14:16:41;14.20;99.90
29575;DHT22;16507;51.046;6.406;2023-04-29T14:19:07;13.90;99.90
29575;DHT22;16507;51.046;6.406;2023-04-29T14:21:33;13.80;99.90
29575;DHT22;16507;51.046;6.406;2023-04-29T14:23:59;13.80;99.90
29575;DHT22;16507;51.046;6.406;2023-04-29T14:26:27;13.80;99.90
29575;DHT22;16507;51.046;6.406;2023-04-29T14:28:56;13.70;99.90
29575;DHT22;16507;51.046;6.406;2023-04-29T14:31:26;13.70;99.90
29575;DHT22;16507;51.046;6.406;2023-04-29T14:33:55;13.60;99.90
29575;DHT22;16507;51.046;6.406;2023-04-29T14:36:21;13.60;99.90
29575;DHT22;16507;51.046;6.406;2023-04-29T14:38:47;13.50;99.90
29575;DHT22;16507;51.046;6.406;2023-04-29T14:41:13;13.40;99.90
29575;DHT22;16507;51.046;6.406;2023-04-29T14:43:38;13.50;99.90
29575;DHT22;16507;51.046;6.406;2023-04-29T14:46:05;13.40;99.90
29575;DHT22;16507;51.046;6.406;2023-04-29T14:48:31;13.40;99.90
29575;DHT22;16507;51.046;6.406;2023-04-29T14:50:57;13.40;99.90
29575;DHT22;16507;51.046;6.406;2023-04-29T14:53:23;13.40;99.90
29575;DHT22;16507;51.046;6.406;2023-04-29T14:55:49;13.40;99.90
29575;DHT22;16507;51.046;6.406;2023-04-29T14:58:15;13.40;99.90
29575;DHT22;16507;51.046;6.406;2023-04-29T15:00:41;13.40;99.90
29575;DHT22;16507;51.046;6.406;2023-04-29T15:03:07;13.40;99.90
29575;DHT22;16507;51.046;6.406;2023-04-29T15:05:33;13.40;99.90
29575;DHT22;16507;51.046;6.406;2023-04-29T15:07:59;13.30;99.90
29575;DHT22;16507;51.046;6.406;2023-04-29T15:10:26;13.40;99.90
29575;DHT22;16507;51.046;6.406;2023-04-29T15:12:53;13.40;99.90
29575;DHT22;16507;51.046;6.406;2023-04-29T15:15:19;13.30;99.90
29575;DHT22;16507;51.046;6.406;2023-04-29T15:17:45;13.40;99.90
29575;DHT22;16507;51.046;6.406;2023-04-29T15:20:11;13.40;99.90
29575;DHT22;16507;51.046;6.406;2023-04-29T15:22:37;13.60;99.90
29575;DHT22;16507;51.046;6.406;2023-04-29T15:25:04;13.60;99.90
29575;DHT22;16507;51.046;6.406;2023-04-29T15:27:30;13.70;99.90
29575;DHT22;16507;51.046;6.406;2023-04-29T15:29:56;13.50;99.90
29575;DHT22;16507;51.046;6.406;2023-04-29T15:32:22;13.60;99.90
29575;DHT22;16507;51.046;6.406;2023-04-29T15:34:49;13.60;99.90
29575;DHT22;16507;51.046;6.406;2023-04-29T15:37:15;13.70;99.90
29575;DHT22;16507;51.046;6.406;2023-04-29T15:39:40;13.90;99.90
29575;DHT22;16507;51.046;6.406;2023-04-29T15:42:06;14.00;99.90
29575;DHT22;16507;51.046;6.406;2023-04-29T15:44:32;13.90;99.90
29575;DHT22;16507;51.046;6.406;2023-04-29T15:46:58;14.00;99.90
29575;DHT22;16507;51.046;6.406;2023-04-29T15:49:24;14.00;99.90
29575;DHT22;16507;51.046;6.406;2023-04-29T15:51:49;14.00;99.90
29575;DHT22;16507;51.046;6.406;2023-04-29T15:54:15;14.00;99.90
29575;DHT22;16507;51.046;6.406;2023-04-29T15:56:41;13.90;99.90
29575;DHT22;16507;51.046;6.406;2023-04-29T15:59:07;13.90;99.90
29575;DHT22;16507;51.046;6.406;2023-04-29T16:01:33;13.90;99.90